sensor_id;sensor_type;location;lat;lon;timestamp;P1;durP1;ratioP1;P2;durP2;ratioP2
60318;SDS011;46163;52.306;5.634;2022-09-24T00:00:45;2.13;;;1.92;;
60318;SDS011;46163;52.306;5.634;2022-09-24T00:03:19;1.90;;;1.80;;
60318;SDS011;46163;52.306;5.634;2022-09-24T00:05:46;1.75;;;1.65;;
60318;SDS011;46163;52.306;5.634;2022-09-24T00:08:13;2.10;;;1.90;;
60318;SDS011;46163;52.306;5.634;2022-09-24T00:10:41;1.70;;;1.60;;
60318;SDS011;46163;52.306;5.634;2022-09-24T00:13:10;1.90;;;1.80;;
60318;SDS011;46163;52.306;5.634;2022-09-24T00:15:38;2.05;;;1.85;;
60318;SDS011;46163;52.306;5.634;2022-09-24T00:18:04;2.33;;;1.98;;
60318;SDS011;46163;52.306;5.634;2022-09-24T00:20:32;1.60;;;1.50;;
60318;SDS011;46163;52.306;5.634;2022-09-24T00:22:59;2.00;;;1.80;;
60318;SDS011;46163;52.306;5.634;2022-09-24T00:25:26;1.92;;;1.80;;
60318;SDS011;46163;52.306;5.634;2022-09-24T00:28:13;2.03;;;1.83;;
60318;SDS011;46163;52.306;5.634;2022-09-24T00:30:40;1.95;;;1.80;;
60318;SDS011;46163;52.306;5.634;2022-09-24T00:33:07;2.78;;;1.90;;
60318;SDS011;46163;52.306;5.634;2022-09-24T00:35:34;1.80;;;1.70;;
60318;SDS011;46163;52.306;5.634;2022-09-24T00:38:00;2.40;;;2.20;;
60318;SDS011;46163;52.306;5.634;2022-09-24T00:40:27;1.88;;;1.77;;
60318;SDS011;46163;52.306;5.634;2022-09-24T00:42:54;2.20;;;2.00;;
60318;SDS011;46163;52.306;5.634;2022-09-24T00:45:19;2.28;;;1.80;;
60318;SDS011;46163;52.306;5.634;2022-09-24T00:47:46;2.60;;;2.10;;
60318;SDS011;46163;52.306;5.634;2022-09-24T00:55:30;2.00;;;1.90;;
60318;SDS011;46163;52.306;5.634;2022-09-24T00:58:01;1.55;;;1.45;;
60318;SDS011;46163;52.306;5.634;2022-09-24T01:00:30;1.88;;;1.70;;
60318;SDS011;46163;52.306;5.634;2022-09-24T01:03:04;2.30;;;2.10;;
60318;SDS011;46163;52.306;5.634;2022-09-24T01:05:34;2.72;;;1.90;;
60318;SDS011;46163;52.306;5.634;2022-09-24T01:08:01;2.20;;;2.00;;
60318;SDS011;46163;52.306;5.634;2022-09-24T01:10:30;1.85;;;1.75;;
60318;SDS011;46163;52.306;5.634;2022-09-24T01:15:54;2.10;;;1.90;;
60318;SDS011;46163;52.306;5.634;2022-09-24T01:30:50;1.70;;;1.60;;
60318;SDS011;46163;52.306;5.634;2022-09-24T01:33:23;1.80;;;1.70;;
60318;SDS011;46163;52.306;5.634;2022-09-24T01:35:52;1.70;;;1.60;;
60318;SDS011;46163;52.306;5.634;2022-09-24T01:38:23;1.70;;;1.60;;
60318;SDS011;46163;52.306;5.634;2022-09-24T01:40:52;1.73;;;1.63;;
60318;SDS011;46163;52.306;5.634;2022-09-24T01:43:21;2.75;;;1.98;;
60318;SDS011;46163;52.306;5.634;2022-09-24T01:45:51;1.88;;;1.70;;
60318;SDS011;46163;52.306;5.634;2022-09-24T01:48:20;1.70;;;1.60;;
60318;SDS011;46163;52.306;5.634;2022-09-24T01:53:46;1.80;;;1.70;;
60318;SDS011;46163;52.306;5.634;2022-09-24T02:01:56;1.65;;;1.55;;
60318;SDS011;46163;52.306;5.634;2022-09-24T02:04:28;1.80;;;1.70;;
60318;SDS011;46163;52.306;5.634;2022-09-24T02:07:00;1.48;;;1.38;;
60318;SDS011;46163;52.306;5.634;2022-09-24T02:12:15;1.85;;;1.67;;
60318;SDS011;46163;52.306;5.634;2022-09-24T02:14:50;1.58;;;1.48;;
60318;SDS011;46163;52.306;5.634;2022-09-24T02:17:19;1.50;;;1.40;;
60318;SDS011;46163;52.306;5.634;2022-09-24T02:19:48;1.60;;;1.50;;
60318;SDS011;46163;52.306;5.634;2022-09-24T02:22:14;1.88;;;1.77;;
60318;SDS011;46163;52.306;5.634;2022-09-24T02:24:48;1.52;;;1.42;;
60318;SDS011;46163;52.306;5.634;2022-09-24T02:27:18;1.50;;;1.40;;
60318;SDS011;46163;52.306;5.634;2022-09-24T02:29:44;1.70;;;1.60;;
60318;SDS011;46163;52.306;5.634;2022-09-24T02:32:12;1.85;;;1.50;;
60318;SDS011;46163;52.306;5.634;2022-09-24T02:34:41;1.60;;;1.50;;
60318;SDS011;46163;52.306;5.634;2022-09-24T02:37:11;1.55;;;1.45;;
60318;SDS011;46163;52.306;5.634;2022-09-24T02:39:38;1.58;;;1.48;;
60318;SDS011;46163;52.306;5.634;2022-09-24T02:42:05;1.70;;;1.60;;
60318;SDS011;46163;52.306;5.634;2022-09-24T02:44:32;1.80;;;1.70;;
60318;SDS011;46163;52.306;5.634;2022-09-24T02:46:58;1.55;;;1.45;;
60318;SDS011;46163;52.306;5.634;2022-09-24T02:49:24;1.67;;;1.52;;
60318;SDS011;46163;52.306;5.634;2022-09-24T02:51:50;1.52;;;1.42;;
60318;SDS011;46163;52.306;5.634;2022-09-24T02:54:16;1.50;;;1.40;;
60318;SDS011;46163;52.306;5.634;2022-09-24T02:56:42;1.48;;;1.38;;
60318;SDS011;46163;52.306;5.634;2022-09-24T02:59:07;1.60;;;1.50;;
60318;SDS011;46163;52.306;5.634;2022-09-24T03:01:34;1.60;;;1.50;;
60318;SDS011;46163;52.306;5.634;2022-09-24T03:03:59;1.45;;;1.40;;
60318;SDS011;46163;52.306;5.634;2022-09-24T03:06:26;1.70;;;1.60;;
60318;SDS011;46163;52.306;5.634;2022-09-24T03:08:52;1.70;;;1.60;;
60318;SDS011;46163;52.306;5.634;2022-09-24T03:11:18;1.67;;;1.58;;
60318;SDS011;46163;52.306;5.634;2022-09-24T03:13:45;1.63;;;1.52;;
60318;SDS011;46163;52.306;5.634;2022-09-24T03:16:15;1.60;;;1.50;;
60318;SDS011;46163;52.306;5.634;2022-09-24T03:18:41;1.45;;;1.45;;
60318;SDS011;46163;52.306;5.634;2022-09-24T03:21:08;1.67;;;1.58;;
60318;SDS011;46163;52.306;5.634;2022-09-24T03:23:36;1.63;;;1.52;;
60318;SDS011;46163;52.306;5.634;2022-09-24T03:26:02;1.70;;;1.60;;
60318;SDS011;46163;52.306;5.634;2022-09-24T03:28:28;1.50;;;1.40;;
60318;SDS011;46163;52.306;5.634;2022-09-24T03:30:54;1.60;;;1.50;;
60318;SDS011;46163;52.306;5.634;2022-09-24T03:33:32;1.77;;;1.50;;
60318;SDS011;46163;52.306;5.634;2022-09-24T03:38:32;2.17;;;1.95;;
60318;SDS011;46163;52.306;5.634;2022-09-24T03:40:58;1.85;;;1.70;;
60318;SDS011;46163;52.306;5.634;2022-09-24T03:43:24;1.48;;;1.38;;
60318;SDS011;46163;52.306;5.634;2022-09-24T03:45:50;1.70;;;1.60;;
60318;SDS011;46163;52.306;5.634;2022-09-24T03:48:17;1.60;;;1.50;;
60318;SDS011;46163;52.306;5.634;2022-09-24T03:50:44;1.80;;;1.70;;
60318;SDS011;46163;52.306;5.634;2022-09-24T03:53:10;1.65;;;1.55;;
60318;SDS011;46163;52.306;5.634;2022-09-24T03:55:40;1.42;;;1.33;;
60318;SDS011;46163;52.306;5.634;2022-09-24T03:58:07;1.77;;;1.65;;
60318;SDS011;46163;52.306;5.634;2022-09-24T04:00:33;1.55;;;1.45;;
60318;SDS011;46163;52.306;5.634;2022-09-24T04:02:59;1.70;;;1.60;;
60318;SDS011;46163;52.306;5.634;2022-09-24T04:05:24;1.25;;;1.25;;
60318;SDS011;46163;52.306;5.634;2022-09-24T04:07:50;1.50;;;1.42;;
60318;SDS011;46163;52.306;5.634;2022-09-24T04:10:15;1.80;;;1.60;;
60318;SDS011;46163;52.306;5.634;2022-09-24T04:12:41;1.58;;;1.45;;
60318;SDS011;46163;52.306;5.634;2022-09-24T04:15:08;1.60;;;1.50;;
60318;SDS011;46163;52.306;5.634;2022-09-24T04:17:34;1.20;;;1.20;;
60318;SDS011;46163;52.306;5.634;2022-09-24T04:19:59;1.60;;;1.50;;
60318;SDS011;46163;52.306;5.634;2022-09-24T04:22:25;1.60;;;1.50;;
60318;SDS011;46163;52.306;5.634;2022-09-24T04:24:53;1.25;;;1.25;;
60318;SDS011;46163;52.306;5.634;2022-09-24T04:27:20;1.60;;;1.50;;
60318;SDS011;46163;52.306;5.634;2022-09-24T04:29:45;1.33;;;1.30;;
60318;SDS011;46163;52.306;5.634;2022-09-24T04:32:11;1.63;;;1.52;;
60318;SDS011;46163;52.306;5.634;2022-09-24T04:34:36;1.60;;;1.50;;
60318;SDS011;46163;52.306;5.634;2022-09-24T04:37:01;1.30;;;1.30;;
60318;SDS011;46163;52.306;5.634;2022-09-24T04:39:28;1.65;;;1.55;;
60318;SDS011;46163;52.306;5.634;2022-09-24T04:41:53;1.60;;;1.50;;
60318;SDS011;46163;52.306;5.634;2022-09-24T04:44:19;1.40;;;1.30;;
60318;SDS011;46163;52.306;5.634;2022-09-24T04:46:45;1.70;;;1.60;;
60318;SDS011;46163;52.306;5.634;2022-09-24T04:49:13;1.50;;;1.40;;
60318;SDS011;46163;52.306;5.634;2022-09-24T04:51:41;1.60;;;1.50;;
60318;SDS011;46163;52.306;5.634;2022-09-24T04:54:07;1.48;;;1.40;;
60318;SDS011;46163;52.306;5.634;2022-09-24T04:56:33;1.20;;;1.20;;
60318;SDS011;46163;52.306;5.634;2022-09-24T04:58:59;1.55;;;1.45;;
60318;SDS011;46163;52.306;5.634;2022-09-24T05:01:25;1.58;;;1.48;;
60318;SDS011;46163;52.306;5.634;2022-09-24T05:03:51;1.58;;;1.48;;
60318;SDS011;46163;52.306;5.634;2022-09-24T05:06:17;1.63;;;1.52;;
60318;SDS011;46163;52.306;5.634;2022-09-24T05:08:43;1.58;;;1.48;;
60318;SDS011;46163;52.306;5.634;2022-09-24T05:11:08;1.55;;;1.45;;
60318;SDS011;46163;52.306;5.634;2022-09-24T05:13:34;1.48;;;1.38;;
60318;SDS011;46163;52.306;5.634;2022-09-24T05:16:01;1.58;;;1.50;;
60318;SDS011;46163;52.306;5.634;2022-09-24T05:18:27;1.60;;;1.50;;
60318;SDS011;46163;52.306;5.634;2022-09-24T05:20:52;1.70;;;1.60;;
60318;SDS011;46163;52.306;5.634;2022-09-24T05:23:18;1.58;;;1.48;;
60318;SDS011;46163;52.306;5.634;2022-09-24T05:25:43;1.83;;;1.30;;
60318;SDS011;46163;52.306;5.634;2022-09-24T05:28:27;1.70;;;1.60;;
60318;SDS011;46163;52.306;5.634;2022-09-24T05:30:56;1.38;;;1.30;;
60318;SDS011;46163;52.306;5.634;2022-09-24T05:33:22;1.50;;;1.40;;
60318;SDS011;46163;52.306;5.634;2022-09-24T05:35:52;1.60;;;1.50;;
60318;SDS011;46163;52.306;5.634;2022-09-24T05:38:22;1.60;;;1.50;;
60318;SDS011;46163;52.306;5.634;2022-09-24T05:40:48;1.50;;;1.40;;
60318;SDS011;46163;52.306;5.634;2022-09-24T05:43:15;1.50;;;1.40;;
60318;SDS011;46163;52.306;5.634;2022-09-24T05:45:43;1.63;;;1.52;;
60318;SDS011;46163;52.306;5.634;2022-09-24T05:48:09;1.75;;;1.65;;
60318;SDS011;46163;52.306;5.634;2022-09-24T05:50:35;1.55;;;1.45;;
60318;SDS011;46163;52.306;5.634;2022-09-24T05:53:01;1.50;;;1.40;;
60318;SDS011;46163;52.306;5.634;2022-09-24T05:55:29;1.60;;;1.50;;
60318;SDS011;46163;52.306;5.634;2022-09-24T05:57:54;1.40;;;1.35;;
60318;SDS011;46163;52.306;5.634;2022-09-24T06:00:20;1.50;;;1.40;;
60318;SDS011;46163;52.306;5.634;2022-09-24T06:02:46;1.63;;;1.52;;
60318;SDS011;46163;52.306;5.634;2022-09-24T06:05:12;1.70;;;1.60;;
60318;SDS011;46163;52.306;5.634;2022-09-24T06:07:37;1.83;;;1.60;;
60318;SDS011;46163;52.306;5.634;2022-09-24T06:10:03;1.60;;;1.50;;
60318;SDS011;46163;52.306;5.634;2022-09-24T06:12:31;1.58;;;1.48;;
60318;SDS011;46163;52.306;5.634;2022-09-24T06:14:59;1.60;;;1.50;;
60318;SDS011;46163;52.306;5.634;2022-09-24T06:17:26;1.53;;;1.43;;
60318;SDS011;46163;52.306;5.634;2022-09-24T06:19:52;1.60;;;1.50;;
60318;SDS011;46163;52.306;5.634;2022-09-24T06:22:18;1.50;;;1.40;;
60318;SDS011;46163;52.306;5.634;2022-09-24T06:24:45;1.50;;;1.40;;
60318;SDS011;46163;52.306;5.634;2022-09-24T06:27:10;1.83;;;1.70;;
60318;SDS011;46163;52.306;5.634;2022-09-24T06:29:36;1.40;;;1.30;;
60318;SDS011;46163;52.306;5.634;2022-09-24T06:32:01;2.03;;;1.40;;
60318;SDS011;46163;52.306;5.634;2022-09-24T06:34:28;1.63;;;1.52;;
60318;SDS011;46163;52.306;5.634;2022-09-24T06:36:56;1.50;;;1.40;;
60318;SDS011;46163;52.306;5.634;2022-09-24T06:39:22;1.42;;;1.33;;
60318;SDS011;46163;52.306;5.634;2022-09-24T06:41:50;1.30;;;1.30;;
60318;SDS011;46163;52.306;5.634;2022-09-24T06:44:17;1.65;;;1.55;;
60318;SDS011;46163;52.306;5.634;2022-09-24T06:46:43;2.75;;;1.40;;
60318;SDS011;46163;52.306;5.634;2022-09-24T06:49:09;1.45;;;1.33;;
60318;SDS011;46163;52.306;5.634;2022-09-24T06:51:38;2.08;;;1.30;;
60318;SDS011;46163;52.306;5.634;2022-09-24T06:54:04;1.50;;;1.40;;
60318;SDS011;46163;52.306;5.634;2022-09-24T06:56:30;1.60;;;1.50;;
60318;SDS011;46163;52.306;5.634;2022-09-24T06:58:55;1.40;;;1.30;;
60318;SDS011;46163;52.306;5.634;2022-09-24T07:01:21;1.67;;;1.58;;
60318;SDS011;46163;52.306;5.634;2022-09-24T07:03:46;1.40;;;1.30;;
60318;SDS011;46163;52.306;5.634;2022-09-24T07:06:12;1.60;;;1.50;;
60318;SDS011;46163;52.306;5.634;2022-09-24T07:08:37;1.70;;;1.60;;
60318;SDS011;46163;52.306;5.634;2022-09-24T07:11:03;1.50;;;1.40;;
60318;SDS011;46163;52.306;5.634;2022-09-24T07:13:29;1.45;;;1.35;;
60318;SDS011;46163;52.306;5.634;2022-09-24T07:15:54;1.50;;;1.40;;
60318;SDS011;46163;52.306;5.634;2022-09-24T07:18:20;1.60;;;1.50;;
60318;SDS011;46163;52.306;5.634;2022-09-24T07:20:55;1.60;;;1.50;;
60318;SDS011;46163;52.306;5.634;2022-09-24T07:23:21;2.13;;;1.50;;
60318;SDS011;46163;52.306;5.634;2022-09-24T07:25:48;1.60;;;1.50;;
60318;SDS011;46163;52.306;5.634;2022-09-24T07:28:15;1.50;;;1.40;;
60318;SDS011;46163;52.306;5.634;2022-09-24T07:30:41;1.52;;;1.42;;
60318;SDS011;46163;52.306;5.634;2022-09-24T07:33:06;1.50;;;1.40;;
60318;SDS011;46163;52.306;5.634;2022-09-24T07:35:32;1.70;;;1.60;;
60318;SDS011;46163;52.306;5.634;2022-09-24T07:38:01;1.50;;;1.40;;
60318;SDS011;46163;52.306;5.634;2022-09-24T07:40:29;2.22;;;1.50;;
60318;SDS011;46163;52.306;5.634;2022-09-24T07:42:55;2.33;;;1.50;;
60318;SDS011;46163;52.306;5.634;2022-09-24T07:45:22;2.22;;;1.70;;
60318;SDS011;46163;52.306;5.634;2022-09-24T07:47:58;2.00;;;1.70;;
60318;SDS011;46163;52.306;5.634;2022-09-24T07:50:26;4.25;;;1.65;;
60318;SDS011;46163;52.306;5.634;2022-09-24T07:52:53;14.18;;;2.38;;
60318;SDS011;46163;52.306;5.634;2022-09-24T07:55:19;1.80;;;1.70;;
60318;SDS011;46163;52.306;5.634;2022-09-24T07:57:48;1.77;;;1.65;;
60318;SDS011;46163;52.306;5.634;2022-09-24T08:00:16;4.13;;;1.70;;
60318;SDS011;46163;52.306;5.634;2022-09-24T08:02:42;1.80;;;1.70;;
60318;SDS011;46163;52.306;5.634;2022-09-24T08:05:11;2.17;;;1.80;;
60318;SDS011;46163;52.306;5.634;2022-09-24T08:07:39;2.30;;;1.80;;
60318;SDS011;46163;52.306;5.634;2022-09-24T08:10:05;8.27;;;1.83;;
60318;SDS011;46163;52.306;5.634;2022-09-24T08:12:30;2.00;;;1.80;;
60318;SDS011;46163;52.306;5.634;2022-09-24T08:14:56;2.42;;;1.73;;
60318;SDS011;46163;52.306;5.634;2022-09-24T08:17:22;5.40;;;1.83;;
60318;SDS011;46163;52.306;5.634;2022-09-24T08:19:47;1.73;;;1.63;;
60318;SDS011;46163;52.306;5.634;2022-09-24T08:22:15;2.28;;;1.88;;
60318;SDS011;46163;52.306;5.634;2022-09-24T08:24:40;4.07;;;2.10;;
60318;SDS011;46163;52.306;5.634;2022-09-24T08:27:06;2.95;;;2.05;;
60318;SDS011;46163;52.306;5.634;2022-09-24T08:29:32;2.58;;;1.80;;
60318;SDS011;46163;52.306;5.634;2022-09-24T08:31:58;3.53;;;1.80;;
60318;SDS011;46163;52.306;5.634;2022-09-24T08:34:24;1.95;;;1.63;;
60318;SDS011;46163;52.306;5.634;2022-09-24T08:36:50;1.98;;;1.50;;
60318;SDS011;46163;52.306;5.634;2022-09-24T08:39:15;4.45;;;1.90;;
60318;SDS011;46163;52.306;5.634;2022-09-24T08:41:54;2.83;;;1.63;;
60318;SDS011;46163;52.306;5.634;2022-09-24T08:44:35;1.92;;;1.73;;
60318;SDS011;46163;52.306;5.634;2022-09-24T08:50:05;2.28;;;1.70;;
60318;SDS011;46163;52.306;5.634;2022-09-24T08:55:53;1.92;;;1.60;;
60318;SDS011;46163;52.306;5.634;2022-09-24T08:58:24;4.78;;;1.70;;
60318;SDS011;46163;52.306;5.634;2022-09-24T09:01:06;3.63;;;1.73;;
60318;SDS011;46163;52.306;5.634;2022-09-24T09:03:49;7.95;;;1.90;;
60318;SDS011;46163;52.306;5.634;2022-09-24T09:09:28;1.80;;;1.60;;
60318;SDS011;46163;52.306;5.634;2022-09-24T09:12:22;3.45;;;1.58;;
60318;SDS011;46163;52.306;5.634;2022-09-24T09:14:56;1.85;;;1.70;;
60318;SDS011;46163;52.306;5.634;2022-09-24T09:17:43;4.82;;;2.55;;
60318;SDS011;46163;52.306;5.634;2022-09-24T09:20:24;2.80;;;1.90;;
60318;SDS011;46163;52.306;5.634;2022-09-24T09:23:03;1.70;;;1.60;;
60318;SDS011;46163;52.306;5.634;2022-09-24T09:25:38;3.10;;;1.70;;
60318;SDS011;46163;52.306;5.634;2022-09-24T09:28:10;3.70;;;1.92;;
60318;SDS011;46163;52.306;5.634;2022-09-24T09:30:45;3.45;;;1.60;;
60318;SDS011;46163;52.306;5.634;2022-09-24T09:38:56;3.70;;;1.85;;
60318;SDS011;46163;52.306;5.634;2022-09-24T09:44:13;1.77;;;1.60;;
60318;SDS011;46163;52.306;5.634;2022-09-24T09:49:30;2.42;;;1.70;;
60318;SDS011;46163;52.306;5.634;2022-09-24T09:52:00;3.17;;;1.80;;
60318;SDS011;46163;52.306;5.634;2022-09-24T09:54:37;1.90;;;1.50;;
60318;SDS011;46163;52.306;5.634;2022-09-24T09:57:04;2.20;;;1.77;;
60318;SDS011;46163;52.306;5.634;2022-09-24T09:59:31;2.33;;;1.83;;
60318;SDS011;46163;52.306;5.634;2022-09-24T10:01:59;1.83;;;1.55;;
60318;SDS011;46163;52.306;5.634;2022-09-24T10:09:30;1.88;;;1.75;;
60318;SDS011;46163;52.306;5.634;2022-09-24T10:15:02;1.50;;;1.40;;
60318;SDS011;46163;52.306;5.634;2022-09-24T10:17:34;3.20;;;1.70;;
60318;SDS011;46163;52.306;5.634;2022-09-24T10:20:12;2.22;;;1.60;;
60318;SDS011;46163;52.306;5.634;2022-09-24T10:23:01;1.73;;;1.58;;
60318;SDS011;46163;52.306;5.634;2022-09-24T10:25:29;2.17;;;1.65;;
60318;SDS011;46163;52.306;5.634;2022-09-24T10:33:25;1.98;;;1.73;;
60318;SDS011;46163;52.306;5.634;2022-09-24T10:36:02;1.60;;;1.50;;
60318;SDS011;46163;52.306;5.634;2022-09-24T10:38:31;2.15;;;1.70;;
60318;SDS011;46163;52.306;5.634;2022-09-24T10:40:57;1.60;;;1.50;;
60318;SDS011;46163;52.306;5.634;2022-09-24T10:43:25;1.50;;;1.40;;
60318;SDS011;46163;52.306;5.634;2022-09-24T10:48:43;1.60;;;1.50;;
60318;SDS011;46163;52.306;5.634;2022-09-24T10:53:57;4.50;;;1.40;;
60318;SDS011;46163;52.306;5.634;2022-09-24T10:56:43;3.25;;;1.38;;
60318;SDS011;46163;52.306;5.634;2022-09-24T11:05:10;2.10;;;1.50;;
60318;SDS011;46163;52.306;5.634;2022-09-24T11:13:23;1.30;;;1.30;;
60318;SDS011;46163;52.306;5.634;2022-09-24T11:19:02;1.50;;;1.40;;
60318;SDS011;46163;52.306;5.634;2022-09-24T11:22:05;1.48;;;1.38;;
60318;SDS011;46163;52.306;5.634;2022-09-24T11:24:41;2.53;;;1.30;;
60318;SDS011;46163;52.306;5.634;2022-09-24T11:30:19;2.80;;;1.38;;
60318;SDS011;46163;52.306;5.634;2022-09-24T11:32:52;1.13;;;1.10;;
60318;SDS011;46163;52.306;5.634;2022-09-24T11:35:31;1.85;;;1.40;;
60318;SDS011;46163;52.306;5.634;2022-09-24T11:38:09;1.40;;;1.30;;
60318;SDS011;46163;52.306;5.634;2022-09-24T11:43:45;1.77;;;1.25;;
60318;SDS011;46163;52.306;5.634;2022-09-24T11:46:45;1.55;;;1.10;;
60318;SDS011;46163;52.306;5.634;2022-09-24T11:49:38;1.23;;;1.13;;
60318;SDS011;46163;52.306;5.634;2022-09-24T11:54:57;1.38;;;1.20;;
60318;SDS011;46163;52.306;5.634;2022-09-24T11:57:29;1.65;;;1.23;;
60318;SDS011;46163;52.306;5.634;2022-09-24T12:00:04;2.25;;;1.40;;
60318;SDS011;46163;52.306;5.634;2022-09-24T12:08:55;1.27;;;1.17;;
60318;SDS011;46163;52.306;5.634;2022-09-24T12:14:18;1.05;;;1.00;;
60318;SDS011;46163;52.306;5.634;2022-09-24T12:16:48;2.22;;;1.13;;
60318;SDS011;46163;52.306;5.634;2022-09-24T12:19:21;1.23;;;1.13;;
60318;SDS011;46163;52.306;5.634;2022-09-24T12:21:52;1.00;;;0.98;;
60318;SDS011;46163;52.306;5.634;2022-09-24T12:24:24;1.10;;;1.00;;
60318;SDS011;46163;52.306;5.634;2022-09-24T12:26:50;0.90;;;0.90;;
60318;SDS011;46163;52.306;5.634;2022-09-24T12:38:15;2.15;;;1.00;;
60318;SDS011;46163;52.306;5.634;2022-09-24T12:43:46;0.82;;;0.82;;
60318;SDS011;46163;52.306;5.634;2022-09-24T12:46:21;0.88;;;0.70;;
60318;SDS011;46163;52.306;5.634;2022-09-24T12:49:03;0.75;;;0.75;;
60318;SDS011;46163;52.306;5.634;2022-09-24T12:51:35;0.70;;;0.70;;
60318;SDS011;46163;52.306;5.634;2022-09-24T12:54:22;0.73;;;0.73;;
60318;SDS011;46163;52.306;5.634;2022-09-24T12:59:46;0.80;;;0.80;;
60318;SDS011;46163;52.306;5.634;2022-09-24T13:02:23;0.60;;;0.60;;
60318;SDS011;46163;52.306;5.634;2022-09-24T13:07:29;0.55;;;0.55;;
60318;SDS011;46163;52.306;5.634;2022-09-24T13:09:57;1.08;;;0.80;;
60318;SDS011;46163;52.306;5.634;2022-09-24T13:12:55;0.90;;;0.63;;
60318;SDS011;46163;52.306;5.634;2022-09-24T13:15:24;0.70;;;0.70;;
60318;SDS011;46163;52.306;5.634;2022-09-24T13:20:39;0.90;;;0.75;;
60318;SDS011;46163;52.306;5.634;2022-09-24T13:26:08;0.98;;;0.60;;
60318;SDS011;46163;52.306;5.634;2022-09-24T13:31:21;0.90;;;0.90;;
60318;SDS011;46163;52.306;5.634;2022-09-24T13:36:39;0.90;;;0.85;;
60318;SDS011;46163;52.306;5.634;2022-09-24T13:39:20;1.08;;;0.98;;
60318;SDS011;46163;52.306;5.634;2022-09-24T13:44:38;0.75;;;0.70;;
60318;SDS011;46163;52.306;5.634;2022-09-24T13:49:35;0.80;;;0.80;;
60318;SDS011;46163;52.306;5.634;2022-09-24T13:52:07;1.02;;;0.93;;
60318;SDS011;46163;52.306;5.634;2022-09-24T13:54:55;1.05;;;0.75;;
60318;SDS011;46163;52.306;5.634;2022-09-24T13:57:25;0.93;;;0.77;;
60318;SDS011;46163;52.306;5.634;2022-09-24T14:02:54;0.70;;;0.70;;
60318;SDS011;46163;52.306;5.634;2022-09-24T14:05:23;0.88;;;0.88;;
60318;SDS011;46163;52.306;5.634;2022-09-24T14:07:53;0.80;;;0.65;;
60318;SDS011;46163;52.306;5.634;2022-09-24T14:10:22;0.68;;;0.68;;
60318;SDS011;46163;52.306;5.634;2022-09-24T14:15:57;0.85;;;0.85;;
60318;SDS011;46163;52.306;5.634;2022-09-24T14:18:27;0.80;;;0.80;;
60318;SDS011;46163;52.306;5.634;2022-09-24T14:21:00;0.70;;;0.70;;
60318;SDS011;46163;52.306;5.634;2022-09-24T14:26:02;0.60;;;0.60;;
60318;SDS011;46163;52.306;5.634;2022-09-24T14:28:29;0.85;;;0.85;;
60318;SDS011;46163;52.306;5.634;2022-09-24T14:30:56;0.47;;;0.47;;
60318;SDS011;46163;52.306;5.634;2022-09-24T14:33:24;1.35;;;0.80;;
60318;SDS011;46163;52.306;5.634;2022-09-24T14:35:53;0.50;;;0.50;;
60318;SDS011;46163;52.306;5.634;2022-09-24T14:41:28;0.90;;;0.60;;
60318;SDS011;46163;52.306;5.634;2022-09-24T14:44:01;0.80;;;0.80;;
60318;SDS011;46163;52.306;5.634;2022-09-24T14:46:33;0.60;;;0.60;;
60318;SDS011;46163;52.306;5.634;2022-09-24T14:49:22;0.60;;;0.60;;
60318;SDS011;46163;52.306;5.634;2022-09-24T14:51:59;0.60;;;0.60;;
60318;SDS011;46163;52.306;5.634;2022-09-24T14:54:27;3.58;;;0.55;;
60318;SDS011;46163;52.306;5.634;2022-09-24T14:57:07;0.68;;;0.68;;
60318;SDS011;46163;52.306;5.634;2022-09-24T14:59:35;0.55;;;0.55;;
60318;SDS011;46163;52.306;5.634;2022-09-24T15:02:35;0.70;;;0.70;;
60318;SDS011;46163;52.306;5.634;2022-09-24T15:04:59;1.52;;;0.80;;
60318;SDS011;46163;52.306;5.634;2022-09-24T15:07:29;0.70;;;0.70;;
60318;SDS011;46163;52.306;5.634;2022-09-24T15:09:59;0.82;;;0.60;;
60318;SDS011;46163;52.306;5.634;2022-09-24T15:12:28;1.80;;;1.20;;
60318;SDS011;46163;52.306;5.634;2022-09-24T15:14:59;4.05;;;1.90;;
60318;SDS011;46163;52.306;5.634;2022-09-24T15:17:30;4.18;;;2.10;;
60318;SDS011;46163;52.306;5.634;2022-09-24T15:20:00;4.30;;;2.63;;
60318;SDS011;46163;52.306;5.634;2022-09-24T15:22:27;4.85;;;2.50;;
60318;SDS011;46163;52.306;5.634;2022-09-24T15:24:54;10.02;;;2.70;;
60318;SDS011;46163;52.306;5.634;2022-09-24T15:27:23;5.75;;;2.70;;
60318;SDS011;46163;52.306;5.634;2022-09-24T15:29:57;5.70;;;2.83;;
60318;SDS011;46163;52.306;5.634;2022-09-24T15:34:51;5.57;;;2.60;;
60318;SDS011;46163;52.306;5.634;2022-09-24T15:37:18;4.00;;;2.28;;
60318;SDS011;46163;52.306;5.634;2022-09-24T15:42:18;4.97;;;2.05;;
60318;SDS011;46163;52.306;5.634;2022-09-24T15:44:45;9.35;;;2.40;;
60318;SDS011;46163;52.306;5.634;2022-09-24T15:47:11;7.97;;;2.50;;
60318;SDS011;46163;52.306;5.634;2022-09-24T15:49:38;7.50;;;2.77;;
60318;SDS011;46163;52.306;5.634;2022-09-24T15:52:06;4.90;;;2.20;;
60318;SDS011;46163;52.306;5.634;2022-09-24T15:54:37;6.70;;;2.00;;
60318;SDS011;46163;52.306;5.634;2022-09-24T15:57:02;5.10;;;2.13;;
60318;SDS011;46163;52.306;5.634;2022-09-24T15:59:30;4.60;;;1.80;;
60318;SDS011;46163;52.306;5.634;2022-09-24T16:01:57;5.07;;;2.03;;
60318;SDS011;46163;52.306;5.634;2022-09-24T16:04:25;7.47;;;2.33;;
60318;SDS011;46163;52.306;5.634;2022-09-24T16:06:51;3.60;;;1.88;;
60318;SDS011;46163;52.306;5.634;2022-09-24T16:09:17;3.40;;;1.80;;
60318;SDS011;46163;52.306;5.634;2022-09-24T16:11:42;4.10;;;1.90;;
60318;SDS011;46163;52.306;5.634;2022-09-24T16:14:08;3.90;;;1.60;;
60318;SDS011;46163;52.306;5.634;2022-09-24T16:16:39;3.17;;;1.80;;
60318;SDS011;46163;52.306;5.634;2022-09-24T16:19:06;6.10;;;2.00;;
60318;SDS011;46163;52.306;5.634;2022-09-24T16:21:36;2.78;;;1.33;;
60318;SDS011;46163;52.306;5.634;2022-09-24T16:24:02;3.20;;;1.70;;
60318;SDS011;46163;52.306;5.634;2022-09-24T16:26:27;6.32;;;2.00;;
60318;SDS011;46163;52.306;5.634;2022-09-24T16:28:53;2.22;;;1.40;;
60318;SDS011;46163;52.306;5.634;2022-09-24T16:31:19;2.50;;;1.50;;
60318;SDS011;46163;52.306;5.634;2022-09-24T16:33:46;7.43;;;1.70;;
60318;SDS011;46163;52.306;5.634;2022-09-24T16:36:14;3.65;;;1.60;;
60318;SDS011;46163;52.306;5.634;2022-09-24T16:38:40;4.32;;;1.60;;
60318;SDS011;46163;52.306;5.634;2022-09-24T16:41:06;3.95;;;1.50;;
60318;SDS011;46163;52.306;5.634;2022-09-24T16:43:32;9.85;;;1.85;;
60318;SDS011;46163;52.306;5.634;2022-09-24T16:46:02;2.30;;;1.42;;
60318;SDS011;46163;52.306;5.634;2022-09-24T16:48:29;5.53;;;1.48;;
60318;SDS011;46163;52.306;5.634;2022-09-24T16:51:03;2.33;;;1.50;;
60318;SDS011;46163;52.306;5.634;2022-09-24T16:53:32;3.20;;;1.50;;
60318;SDS011;46163;52.306;5.634;2022-09-24T16:56:06;1.40;;;1.30;;
60318;SDS011;46163;52.306;5.634;2022-09-24T16:58:32;3.13;;;1.52;;
60318;SDS011;46163;52.306;5.634;2022-09-24T17:01:02;1.92;;;1.02;;
60318;SDS011;46163;52.306;5.634;2022-09-24T17:03:28;2.08;;;1.10;;
60318;SDS011;46163;52.306;5.634;2022-09-24T17:05:53;3.70;;;1.27;;
60318;SDS011;46163;52.306;5.634;2022-09-24T17:08:19;3.78;;;1.40;;
60318;SDS011;46163;52.306;5.634;2022-09-24T17:10:48;2.08;;;1.35;;
60318;SDS011;46163;52.306;5.634;2022-09-24T17:13:15;1.77;;;1.10;;
60318;SDS011;46163;52.306;5.634;2022-09-24T17:15:41;1.95;;;1.40;;
60318;SDS011;46163;52.306;5.634;2022-09-24T17:18:07;2.30;;;1.40;;
60318;SDS011;46163;52.306;5.634;2022-09-24T17:20:36;2.35;;;1.17;;
60318;SDS011;46163;52.306;5.634;2022-09-24T17:23:01;2.83;;;1.70;;
60318;SDS011;46163;52.306;5.634;2022-09-24T17:25:27;1.30;;;1.20;;
60318;SDS011;46163;52.306;5.634;2022-09-24T17:27:53;2.25;;;1.38;;
60318;SDS011;46163;52.306;5.634;2022-09-24T17:30:19;1.50;;;1.40;;
60318;SDS011;46163;52.306;5.634;2022-09-24T17:32:44;2.45;;;1.10;;
60318;SDS011;46163;52.306;5.634;2022-09-24T17:35:10;3.00;;;1.20;;
60318;SDS011;46163;52.306;5.634;2022-09-24T17:37:37;1.38;;;1.15;;